createdAt,value
2022-10-03T00:02:11.898Z,17.40
2022-10-03T00:04:43.480Z,17.00
2022-10-03T00:07:28.045Z,18.13
2022-10-03T00:10:05.907Z,17.33
2022-10-03T00:12:35.473Z,16.73
2022-10-03T00:15:05.469Z,19.40
2022-10-03T00:17:47.009Z,19.13
2022-10-03T00:20:36.330Z,18.67
2022-10-03T00:23:08.432Z,17.70
2022-10-03T00:25:53.554Z,17.85
2022-10-03T00:28:26.063Z,17.67
2022-10-03T00:31:08.526Z,17.42
2022-10-03T00:33:47.212Z,18.00
2022-10-03T00:36:25.695Z,17.90
2022-10-03T00:38:51.966Z,16.70
2022-10-03T00:41:18.213Z,17.02
2022-10-03T00:43:44.489Z,17.70
2022-10-03T00:46:29.791Z,18.60
2022-10-03T00:49:05.369Z,17.60
2022-10-03T00:51:45.723Z,18.20
2022-10-03T00:54:18.393Z,18.30
2022-10-03T00:56:57.186Z,18.75
2022-10-03T01:00:02.173Z,19.08
2022-10-03T01:04:54.779Z,18.33
2022-10-03T01:07:39.888Z,19.38
2022-10-03T01:10:13.253Z,18.15
2022-10-03T01:12:49.022Z,20.02
2022-10-03T01:15:27.005Z,20.15
2022-10-03T01:18:11.846Z,19.02
2022-10-03T01:20:50.954Z,18.73
2022-10-03T01:23:32.429Z,18.15
2022-10-03T01:26:13.964Z,18.23
2022-10-03T01:29:06.211Z,18.15
2022-10-03T01:31:50.930Z,17.42
2022-10-03T01:34:28.380Z,16.60
2022-10-03T01:37:06.106Z,16.23
2022-10-03T01:39:37.507Z,15.40
2022-10-03T01:42:20.298Z,14.23
2022-10-03T01:45:13.129Z,15.35
2022-10-03T01:47:55.325Z,14.90
2022-10-03T01:50:27.575Z,14.43
2022-10-03T01:53:15.039Z,14.00
2022-10-03T01:55:50.509Z,15.35
2022-10-03T01:58:36.190Z,13.88
2022-10-03T02:01:21.635Z,14.15
2022-10-03T02:03:51.066Z,13.73
2022-10-03T02:06:21.297Z,13.02
2022-10-03T02:08:48.389Z,13.40
2022-10-03T02:11:33.497Z,13.38
2022-10-03T02:14:18.657Z,13.68
2022-10-03T02:16:52.672Z,12.48
2022-10-03T02:21:52.099Z,13.13
2022-10-03T02:24:32.747Z,12.70
2022-10-03T02:27:17.832Z,12.35
2022-10-03T02:29:47.257Z,12.27
2022-10-03T02:32:27.233Z,13.38
2022-10-03T02:34:56.853Z,12.40
2022-10-03T02:37:38.390Z,12.48
2022-10-03T02:40:08.519Z,12.93
2022-10-03T02:42:53.319Z,11.90
2022-10-03T02:45:19.697Z,12.55
2022-10-03T02:48:30.277Z,11.85
2022-10-03T02:51:11.549Z,11.90
2022-10-03T02:53:54.997Z,13.23
2022-10-03T02:56:45.129Z,12.70
2022-10-03T02:59:11.373Z,12.65
2022-10-03T03:01:41.234Z,12.65
2022-10-03T03:04:10.854Z,12.88
2022-10-03T03:06:40.125Z,12.43
2022-10-03T03:09:29.283Z,13.25
2022-10-03T03:12:13.774Z,12.68
2022-10-03T03:15:12.642Z,12.35
2022-10-03T03:17:49.097Z,11.82
2022-10-03T03:20:32.246Z,13.82
2022-10-03T03:23:13.856Z,13.52
2022-10-03T03:25:40.193Z,13.57
2022-10-03T03:28:13.809Z,13.27
2022-10-03T03:30:47.856Z,14.05
2022-10-03T03:35:40.343Z,14.35
2022-10-03T03:38:25.499Z,13.82
2022-10-03T03:41:13.071Z,14.98
2022-10-03T03:44:06.621Z,14.68
2022-10-03T03:46:40.542Z,15.32
2022-10-03T03:49:08.087Z,15.50
2022-10-03T03:51:42.905Z,16.42
2022-10-03T03:54:12.277Z,16.25
2022-10-03T03:56:47.176Z,16.02
2022-10-03T03:59:32.238Z,17.48
2022-10-03T04:02:06.381Z,17.13
2022-10-03T04:04:57.440Z,17.08
2022-10-03T04:07:33.020Z,17.25
2022-10-03T04:09:59.687Z,16.73
2022-10-03T04:12:26.104Z,16.17
2022-10-03T04:15:18.760Z,17.45
2022-10-03T04:18:27.166Z,17.73
2022-10-03T04:21:18.757Z,18.88
2022-10-03T04:23:45.334Z,19.60
2022-10-03T04:26:15.747Z,19.45
2022-10-03T04:28:48.171Z,19.75
2022-10-03T04:31:26.366Z,19.20
2022-10-03T04:34:03.802Z,18.83
2022-10-03T04:36:40.613Z,18.48
2022-10-03T04:39:16.123Z,17.17
2022-10-03T04:41:49.666Z,17.27
2022-10-03T04:44:34.978Z,16.70
2022-10-03T04:47:15.243Z,17.45
2022-10-03T04:49:49.993Z,17.42
2022-10-03T04:52:33.188Z,16.67
2022-10-03T04:55:04.991Z,16.88
2022-10-03T04:57:31.249Z,17.08
2022-10-03T05:00:16.308Z,17.25
2022-10-03T05:03:01.336Z,17.88
2022-10-03T05:05:55.096Z,17.10
2022-10-03T05:08:30.497Z,16.10
2022-10-03T05:11:18.799Z,16.42
2022-10-03T05:13:53.664Z,16.63
2022-10-03T05:16:24.480Z,16.40
2022-10-03T05:18:56.360Z,17.13
2022-10-03T05:21:32.938Z,15.82
2022-10-03T05:24:04.205Z,15.40
2022-10-03T05:26:46.293Z,16.05
2022-10-03T05:29:31.621Z,14.80
2022-10-03T05:32:16.797Z,15.30
2022-10-03T05:34:43.916Z,15.38
2022-10-03T05:37:28.872Z,14.77
2022-10-03T05:40:14.553Z,15.30
2022-10-03T05:42:43.942Z,14.68
2022-10-03T05:45:25.644Z,14.68
2022-10-03T05:47:56.402Z,15.75
2022-10-03T05:50:35.070Z,15.52
2022-10-03T05:53:08.270Z,14.98
2022-10-03T05:55:46.008Z,14.40
2022-10-03T05:58:18.301Z,14.48
2022-10-03T06:00:45.937Z,13.77
2022-10-03T06:03:31.053Z,14.50
2022-10-03T06:06:03.280Z,15.15
2022-10-03T06:08:29.772Z,15.95
2022-10-03T06:11:11.594Z,14.80
2022-10-03T06:13:46.139Z,15.43
2022-10-03T06:16:23.055Z,14.75
2022-10-03T06:18:58.516Z,15.25
2022-10-03T06:21:49.484Z,15.02
2022-10-03T06:24:49.282Z,13.77
2022-10-03T06:27:15.534Z,14.82
2022-10-03T06:29:47.831Z,15.23
2022-10-03T06:32:17.168Z,15.05
2022-10-03T06:35:02.186Z,14.73
2022-10-03T06:37:40.640Z,14.70
2022-10-03T06:40:19.134Z,13.88
2022-10-03T06:43:04.036Z,14.00
2022-10-03T06:45:31.210Z,13.70
2022-10-03T06:48:16.376Z,15.48
2022-10-03T06:50:52.868Z,15.38
2022-10-03T06:53:29.767Z,15.13
2022-10-03T06:56:14.792Z,14.85
2022-10-03T06:58:59.810Z,15.10
2022-10-03T07:01:32.657Z,16.10
2022-10-03T07:04:05.095Z,15.30
2022-10-03T07:06:44.046Z,14.65
2022-10-03T07:09:29.173Z,13.98
2022-10-03T07:12:15.272Z,15.43
2022-10-03T07:15:00.058Z,14.75
2022-10-03T07:17:45.282Z,14.68
2022-10-03T07:20:26.513Z,14.75
2022-10-03T07:22:52.781Z,15.07
2022-10-03T07:25:25.684Z,15.25
2022-10-03T07:28:04.375Z,13.20
2022-10-03T07:30:48.565Z,12.73
2022-10-03T07:33:23.969Z,13.30
2022-10-03T07:36:11.596Z,12.35
2022-10-03T07:38:59.884Z,11.18
2022-10-03T07:41:32.446Z,11.55
2022-10-03T07:44:07.923Z,11.15
2022-10-03T07:46:52.571Z,10.63
2022-10-03T07:49:36.373Z,8.98
2022-10-03T07:52:23.297Z,9.68
2022-10-03T07:55:08.389Z,9.52
2022-10-03T07:57:53.528Z,9.35
2022-10-03T08:00:25.785Z,10.30
2022-10-03T08:03:04.417Z,9.23
2022-10-03T08:05:54.460Z,9.35
2022-10-03T08:08:20.785Z,9.77
2022-10-03T08:11:06.504Z,9.77
2022-10-03T08:13:51.868Z,10.25
2022-10-03T08:16:50.418Z,9.85
2022-10-03T08:19:19.788Z,9.75
2022-10-03T08:21:49.088Z,10.50
2022-10-03T08:24:15.344Z,10.90
2022-10-03T08:26:55.089Z,10.35
2022-10-03T08:29:40.482Z,9.90
2022-10-03T08:32:30.145Z,9.48
2022-10-03T08:34:56.481Z,9.30
2022-10-03T08:37:25.731Z,9.05
2022-10-03T08:39:55.447Z,9.10
2022-10-03T08:42:24.802Z,9.38
2022-10-03T08:45:04.716Z,9.98
2022-10-03T08:47:34.150Z,9.38
2022-10-03T08:50:19.470Z,9.40
2022-10-03T08:52:56.012Z,8.80
2022-10-03T08:55:25.473Z,7.93
2022-10-03T08:58:11.457Z,7.53
2022-10-03T09:00:47.822Z,8.30
2022-10-03T09:03:34.966Z,9.02
2022-10-03T09:06:24.357Z,7.28
2022-10-03T09:09:03.069Z,6.00
2022-10-03T09:11:48.110Z,5.50
2022-10-03T09:14:32.017Z,4.90
2022-10-03T09:17:07.459Z,4.78
2022-10-03T09:19:52.518Z,4.57
2022-10-03T09:22:39.057Z,4.35
2022-10-03T09:25:29.557Z,4.28
2022-10-03T09:28:14.841Z,4.28
2022-10-03T09:30:53.957Z,4.55
2022-10-03T09:33:45.367Z,4.05
2022-10-03T09:36:20.760Z,3.47
2022-10-03T09:38:50.129Z,3.78
2022-10-03T09:41:22.993Z,4.03
2022-10-03T09:46:22.443Z,3.40
2022-10-03T09:49:11.100Z,3.38
2022-10-03T09:51:43.786Z,3.42
2022-10-03T09:54:44.013Z,3.67
2022-10-03T09:57:22.759Z,3.10
2022-10-03T10:00:08.492Z,3.67
2022-10-03T10:02:38.317Z,4.15
2022-10-03T10:05:23.597Z,3.55
2022-10-03T10:08:02.568Z,3.53
2022-10-03T10:10:51.153Z,3.35
2022-10-03T10:14:03.195Z,3.70
2022-10-03T10:16:31.129Z,3.63
2022-10-03T10:19:09.720Z,3.42
2022-10-03T10:21:52.708Z,3.50
2022-10-03T10:24:37.821Z,3.40
2022-10-03T10:27:20.504Z,3.00
2022-10-03T10:30:05.765Z,2.80
2022-10-03T10:32:48.664Z,2.95
2022-10-03T10:35:24.045Z,3.50
2022-10-03T10:37:54.375Z,3.75
2022-10-03T10:40:20.737Z,3.97
2022-10-03T10:43:00.275Z,3.63
2022-10-03T10:45:48.736Z,3.13
2022-10-03T10:48:33.909Z,3.45
2022-10-03T10:51:15.657Z,2.90
2022-10-03T10:54:00.853Z,3.28
2022-10-03T10:56:45.983Z,2.67
2022-10-03T10:59:31.137Z,2.55
2022-10-03T11:02:17.718Z,3.10
2022-10-03T11:05:03.092Z,3.42
2022-10-03T11:07:53.236Z,3.00
2022-10-03T11:10:31.513Z,2.80
2022-10-03T11:13:23.959Z,2.70
2022-10-03T11:16:21.075Z,2.70
2022-10-03T11:19:06.241Z,2.40
2022-10-03T11:21:51.331Z,2.22
2022-10-03T11:24:17.611Z,2.25
2022-10-03T11:26:53.139Z,2.63
2022-10-03T11:29:39.786Z,2.50
2022-10-03T11:32:24.886Z,2.65
2022-10-03T11:35:07.149Z,2.28
2022-10-03T11:37:52.088Z,2.67
2022-10-03T11:40:24.388Z,2.90
2022-10-03T11:43:02.949Z,2.40
2022-10-03T11:45:33.587Z,2.80
2022-10-03T11:48:26.304Z,2.45
2022-10-03T11:50:57.819Z,2.75
2022-10-03T11:53:33.885Z,2.50
2022-10-03T11:56:09.469Z,2.50
2022-10-03T11:58:41.754Z,2.10
2022-10-03T12:01:27.716Z,1.90
2022-10-03T12:04:08.040Z,1.95
2022-10-03T12:06:53.149Z,2.08
2022-10-03T12:09:25.535Z,2.55
2022-10-03T12:11:58.868Z,2.53
2022-10-03T12:14:29.441Z,2.50
2022-10-03T12:16:58.951Z,2.47
2022-10-03T12:19:34.513Z,2.53
2022-10-03T12:22:22.727Z,2.75
2022-10-03T12:24:49.765Z,2.45
2022-10-03T12:27:30.049Z,2.58
2022-10-03T12:29:59.032Z,3.13
2022-10-03T12:32:34.432Z,2.80
2022-10-03T12:35:00.682Z,2.30
2022-10-03T12:37:39.236Z,2.58
2022-10-03T12:40:10.588Z,2.90
2022-10-03T12:42:41.324Z,3.17
2022-10-03T12:45:07.593Z,3.30
2022-10-03T12:47:55.192Z,3.00
2022-10-03T12:50:28.893Z,2.95
2022-10-03T12:53:14.161Z,3.10
2022-10-03T12:55:46.067Z,2.55
2022-10-03T12:58:21.988Z,3.00
2022-10-03T13:00:55.734Z,3.28
2022-10-03T13:03:22.644Z,2.95
2022-10-03T13:05:56.183Z,2.92
2022-10-03T13:08:42.751Z,3.00
2022-10-03T13:11:25.780Z,2.95
2022-10-03T13:14:00.855Z,3.22
2022-10-03T13:16:30.035Z,3.20
2022-10-03T13:19:09.815Z,3.10
2022-10-03T13:22:11.685Z,2.95
2022-10-03T13:24:46.994Z,3.30
2022-10-03T13:27:17.028Z,3.33
2022-10-03T13:29:48.580Z,3.33
2022-10-03T13:32:30.424Z,3.60
2022-10-03T13:35:34.376Z,3.63
2022-10-03T13:38:09.785Z,3.83
2022-10-03T13:40:38.157Z,3.75
2022-10-03T13:43:09.865Z,3.40
2022-10-03T13:45:40.447Z,4.35
2022-10-03T13:48:09.177Z,4.32
2022-10-03T13:50:42.221Z,3.97
2022-10-03T13:53:23.891Z,4.90
2022-10-03T13:55:58.091Z,3.35
2022-10-03T13:58:32.537Z,3.38
2022-10-03T14:03:37.984Z,3.53
2022-10-03T14:06:15.802Z,3.80
2022-10-03T14:08:42.027Z,4.18
2022-10-03T14:11:27.736Z,4.20
2022-10-03T14:14:01.092Z,4.25
2022-10-03T14:16:30.205Z,4.13
2022-10-03T14:19:15.622Z,4.28
2022-10-03T14:21:42.337Z,4.25
2022-10-03T14:24:16.111Z,3.20
2022-10-03T14:26:45.306Z,4.00
2022-10-03T14:29:25.926Z,3.67
2022-10-03T14:32:17.734Z,3.58
2022-10-03T14:35:00.029Z,4.38
2022-10-03T14:37:44.116Z,4.60
2022-10-03T14:40:33.380Z,4.47
2022-10-03T14:42:59.653Z,4.43
2022-10-03T14:45:29.529Z,4.22
2022-10-03T14:48:03.032Z,4.18
2022-10-03T14:50:31.299Z,4.50
2022-10-03T14:53:03.516Z,4.32
2022-10-03T14:55:33.333Z,4.70
2022-10-03T14:58:12.840Z,4.38
2022-10-03T15:00:43.842Z,4.50
2022-10-03T15:03:16.401Z,4.75
2022-10-03T15:06:01.843Z,3.97
2022-10-03T15:08:35.587Z,4.57
2022-10-03T15:11:02.909Z,4.93
2022-10-03T15:13:33.538Z,4.18
2022-10-03T15:16:01.811Z,4.78
2022-10-03T15:18:28.492Z,4.28
2022-10-03T15:20:55.293Z,4.90
2022-10-03T15:23:30.946Z,4.35
2022-10-03T15:25:58.622Z,4.20
2022-10-03T15:28:24.920Z,4.20
2022-10-03T15:30:53.168Z,4.10
2022-10-03T15:33:29.279Z,3.72
2022-10-03T15:35:59.173Z,4.28
2022-10-03T15:38:29.929Z,4.13
2022-10-03T15:41:08.620Z,4.07
2022-10-03T15:43:36.927Z,4.07
2022-10-03T15:46:06.287Z,4.28
2022-10-03T15:48:32.762Z,4.18
2022-10-03T15:50:59.397Z,4.25
2022-10-03T15:53:36.657Z,4.47
2022-10-03T15:56:06.429Z,4.70
2022-10-03T15:58:33.742Z,4.60
2022-10-03T16:01:00.630Z,4.93
2022-10-03T16:03:32.306Z,4.30
2022-10-03T16:06:17.392Z,3.92
2022-10-03T16:08:52.589Z,4.70
2022-10-03T16:11:22.414Z,6.03
2022-10-03T16:14:07.064Z,6.50
2022-10-03T16:16:36.809Z,7.43
2022-10-03T16:19:23.478Z,6.40
2022-10-03T16:22:01.429Z,6.57
2022-10-03T16:24:29.615Z,7.15
2022-10-03T16:26:59.184Z,6.70
2022-10-03T16:29:28.840Z,6.43
2022-10-03T16:31:57.495Z,7.30
2022-10-03T16:34:27.845Z,6.50
2022-10-03T16:36:54.577Z,7.03
2022-10-03T16:39:25.384Z,6.65
2022-10-03T16:41:55.482Z,6.07
2022-10-03T16:44:27.816Z,8.30
2022-10-03T16:46:56.208Z,7.85
2022-10-03T16:49:41.359Z,8.25
2022-10-03T16:52:12.604Z,8.27
2022-10-03T16:54:40.944Z,9.45
2022-10-03T16:57:33.937Z,9.38
2022-10-03T17:00:06.770Z,9.35
2022-10-03T17:02:37.200Z,10.30
2022-10-03T17:05:07.744Z,12.13
2022-10-03T17:07:39.629Z,12.35
2022-10-03T17:10:17.488Z,11.70
2022-10-03T17:12:52.134Z,11.77
2022-10-03T17:15:27.641Z,12.38
2022-10-03T17:18:01.440Z,9.95
2022-10-03T17:20:36.095Z,9.10
2022-10-03T17:23:04.569Z,9.20
2022-10-03T17:25:33.642Z,8.30
2022-10-03T17:28:03.852Z,8.80
2022-10-03T17:30:37.453Z,9.55
2022-10-03T17:33:11.711Z,10.00
2022-10-03T17:35:53.272Z,10.48
2022-10-03T17:41:15.144Z,10.70
2022-10-03T17:43:44.818Z,11.60
2022-10-03T17:46:27.306Z,10.77
2022-10-03T17:48:54.169Z,8.80
2022-10-03T17:51:32.748Z,8.70
2022-10-03T17:54:00.249Z,8.73
2022-10-03T17:56:29.981Z,8.48
2022-10-03T17:59:00.118Z,8.82
2022-10-03T18:01:34.147Z,8.93
2022-10-03T18:06:42.511Z,9.30
2022-10-03T18:09:08.799Z,9.85
2022-10-03T18:11:37.780Z,10.10
2022-10-03T18:14:11.353Z,10.13
2022-10-03T18:16:42.133Z,9.13
2022-10-03T18:19:27.354Z,9.07
2022-10-03T18:22:12.518Z,8.68
2022-10-03T18:24:51.911Z,9.43
2022-10-03T18:27:19.156Z,10.13
2022-10-03T18:29:55.672Z,9.93
2022-10-03T18:32:25.242Z,9.80
2022-10-03T18:35:05.902Z,9.73
2022-10-03T18:37:32.159Z,9.35
2022-10-03T18:39:59.266Z,9.55
2022-10-03T18:42:30.249Z,9.90
2022-10-03T18:44:57.920Z,10.77
2022-10-03T18:47:32.077Z,10.73
2022-10-03T18:52:29.779Z,9.70
2022-10-03T18:55:05.301Z,9.95
2022-10-03T18:57:34.608Z,11.82
2022-10-03T19:00:02.476Z,11.45
2022-10-03T19:02:34.035Z,10.65
2022-10-03T19:05:11.780Z,10.55
2022-10-03T19:07:44.018Z,11.88
2022-10-03T19:10:16.449Z,10.73
2022-10-03T19:12:45.506Z,12.55
2022-10-03T19:15:14.926Z,12.00
2022-10-03T19:18:00.042Z,12.75
2022-10-03T19:20:41.376Z,11.88
2022-10-03T19:23:13.963Z,12.05
2022-10-03T19:25:42.860Z,11.98
2022-10-03T19:28:20.438Z,11.60
2022-10-03T19:30:55.471Z,10.82
2022-10-03T19:33:23.241Z,11.32
2022-10-03T19:35:52.589Z,11.57
2022-10-03T19:38:24.569Z,12.80
2022-10-03T19:41:13.356Z,12.57
2022-10-03T19:43:44.295Z,12.50
2022-10-03T19:46:34.165Z,12.32
2022-10-03T19:49:00.436Z,11.70
2022-10-03T19:51:27.514Z,11.93
2022-10-03T19:53:54.772Z,13.20
2022-10-03T19:56:21.997Z,13.20
2022-10-03T19:58:58.101Z,14.07
2022-10-03T20:01:25.005Z,14.50
2022-10-03T20:03:54.357Z,14.90
2022-10-03T20:06:26.787Z,14.02
2022-10-03T20:08:55.485Z,13.48
2022-10-03T20:11:28.183Z,13.13
2022-10-03T20:13:55.682Z,13.35
2022-10-03T20:16:23.814Z,13.20
2022-10-03T20:18:55.832Z,14.32
2022-10-03T20:21:25.021Z,13.00
2022-10-03T20:23:52.792Z,14.15
2022-10-03T20:26:19.058Z,13.60
2022-10-03T20:28:51.423Z,13.07
2022-10-03T20:31:23.135Z,13.57
2022-10-03T20:33:50.567Z,13.30
2022-10-03T20:36:22.935Z,13.27
2022-10-03T20:39:04.238Z,12.98
2022-10-03T20:41:49.267Z,12.88
2022-10-03T20:44:29.451Z,12.15
2022-10-03T20:47:05.965Z,11.90
2022-10-03T20:49:35.298Z,12.32
2022-10-03T20:52:03.819Z,12.48
2022-10-03T20:54:34.847Z,12.00
2022-10-03T20:57:19.982Z,12.32
2022-10-03T20:59:47.862Z,12.00
2022-10-03T21:02:14.122Z,12.18
2022-10-03T21:04:47.863Z,11.95
2022-10-03T21:07:26.251Z,11.48
2022-10-03T21:10:13.197Z,12.25
2022-10-03T21:12:50.126Z,11.88
2022-10-03T21:15:21.724Z,12.70
2022-10-03T21:17:49.070Z,11.98
2022-10-03T21:20:18.360Z,11.80
2022-10-03T21:22:46.953Z,11.38
2022-10-03T21:25:19.373Z,10.90
2022-10-03T21:27:51.770Z,11.88
2022-10-03T21:30:19.613Z,11.68
2022-10-03T21:32:51.395Z,11.50
2022-10-03T21:35:23.908Z,11.38
2022-10-03T21:37:59.698Z,11.50
2022-10-03T21:40:46.817Z,11.52
2022-10-03T21:43:13.081Z,12.00
2022-10-03T21:45:50.916Z,12.30
2022-10-03T21:48:32.535Z,12.20
2022-10-03T21:51:00.062Z,12.65
2022-10-03T21:53:46.608Z,11.13
2022-10-03T21:56:12.901Z,11.85
2022-10-03T21:58:45.361Z,11.88
2022-10-03T22:01:15.977Z,11.20
2022-10-03T22:03:48.447Z,11.52
2022-10-03T22:06:25.517Z,11.63
2022-10-03T22:08:52.325Z,10.77
2022-10-03T22:11:27.640Z,10.70
2022-10-03T22:14:00.048Z,13.02
2022-10-03T22:16:33.657Z,12.88
2022-10-03T22:19:19.057Z,13.15
2022-10-03T22:21:55.293Z,13.00
2022-10-03T22:24:27.658Z,11.82
2022-10-03T22:27:05.701Z,11.57
2022-10-03T22:29:39.270Z,12.10
2022-10-03T22:32:38.304Z,12.20
2022-10-03T22:35:27.666Z,12.40
2022-10-03T22:37:54.851Z,11.80
2022-10-03T22:40:21.959Z,11.10
2022-10-03T22:42:49.702Z,13.05
2022-10-03T22:45:16.941Z,14.73
2022-10-03T22:47:46.034Z,14.68
2022-10-03T22:50:14.370Z,13.65
2022-10-03T22:52:42.926Z,13.57
2022-10-03T22:55:11.996Z,13.68
2022-10-03T22:57:40.301Z,11.68
2022-10-03T23:00:09.914Z,12.57
2022-10-03T23:02:38.380Z,12.98
2022-10-03T23:05:09.476Z,12.05
2022-10-03T23:07:40.692Z,12.30
2022-10-03T23:10:22.232Z,12.40
2022-10-03T23:12:51.600Z,11.38
2022-10-03T23:15:19.625Z,12.00
2022-10-03T23:18:04.672Z,16.70
2022-10-03T23:20:57.594Z,13.48
2022-10-03T23:23:38.167Z,13.32
2022-10-03T23:26:23.242Z,15.57
2022-10-03T23:29:05.548Z,16.90
2022-10-03T23:31:50.530Z,18.52
2022-10-03T23:34:32.381Z,17.00
2022-10-03T23:37:00.488Z,18.20
2022-10-03T23:39:31.312Z,17.80
2022-10-03T23:41:58.864Z,12.90
2022-10-03T23:44:29.267Z,12.75
2022-10-03T23:46:55.614Z,12.15
2022-10-03T23:49:22.179Z,10.32
2022-10-03T23:51:48.882Z,12.07
2022-10-03T23:54:16.222Z,16.13
2022-10-03T23:56:44.499Z,15.48
2022-10-03T23:59:16.503Z,14.57
